createdAt,value
2022-08-19T00:01:29.000Z,19.60
2022-08-19T00:04:00.855Z,19.60
2022-08-19T00:06:29.700Z,19.60
2022-08-19T00:09:01.034Z,19.60
2022-08-19T00:11:29.117Z,19.60
2022-08-19T00:13:57.918Z,19.60
2022-08-19T00:16:26.859Z,19.50
2022-08-19T00:18:56.057Z,19.50
2022-08-19T00:21:24.095Z,19.50
2022-08-19T00:23:52.120Z,19.50
2022-08-19T00:26:22.200Z,19.50
2022-08-19T00:28:50.032Z,19.50
2022-08-19T00:31:18.238Z,19.50
2022-08-19T00:33:46.106Z,19.40
2022-08-19T00:36:14.111Z,19.40
2022-08-19T00:38:44.072Z,19.30
2022-08-19T00:41:14.368Z,19.30
2022-08-19T00:43:43.561Z,19.30
2022-08-19T00:46:11.672Z,19.20
2022-08-19T00:48:39.562Z,19.20
2022-08-19T00:51:08.014Z,19.10
2022-08-19T00:53:35.932Z,19.10
2022-08-19T00:56:07.361Z,19.00
2022-08-19T00:58:37.007Z,19.00
2022-08-19T01:01:06.626Z,18.90
2022-08-19T01:03:56.535Z,18.90
2022-08-19T01:06:22.525Z,18.90
2022-08-19T01:08:50.645Z,18.80
2022-08-19T01:11:18.617Z,18.80
2022-08-19T01:13:50.013Z,18.80
2022-08-19T01:16:22.087Z,18.70
2022-08-19T01:18:50.017Z,18.70
2022-08-19T01:21:24.012Z,18.70
2022-08-19T01:23:53.378Z,18.60
2022-08-19T01:26:23.988Z,18.60
2022-08-19T01:28:54.712Z,18.50
2022-08-19T01:31:31.302Z,18.50
2022-08-19T01:34:01.842Z,18.50
2022-08-19T01:36:33.534Z,18.50
2022-08-19T01:39:05.147Z,18.50
2022-08-19T01:41:32.897Z,18.40
2022-08-19T01:44:09.858Z,18.40
2022-08-19T01:46:46.435Z,18.40
2022-08-19T01:49:14.400Z,18.40
2022-08-19T01:51:42.240Z,18.40
2022-08-19T01:54:13.442Z,18.40
2022-08-19T01:56:41.396Z,18.30
2022-08-19T01:59:13.406Z,18.30
2022-08-19T02:01:41.265Z,18.30
2022-08-19T02:04:09.699Z,18.30
2022-08-19T02:06:38.253Z,18.20
2022-08-19T02:09:09.859Z,18.20
2022-08-19T02:11:39.949Z,18.20
2022-08-19T02:14:09.784Z,18.30
2022-08-19T02:16:39.253Z,18.30
2022-08-19T02:19:07.151Z,18.20
2022-08-19T02:21:35.441Z,18.20
2022-08-19T02:24:03.884Z,18.10
2022-08-19T02:26:31.796Z,18.10
2022-08-19T02:29:01.199Z,18.00
2022-08-19T02:31:29.700Z,18.00
2022-08-19T02:33:58.637Z,17.90
2022-08-19T02:36:27.431Z,17.90
2022-08-19T02:38:55.699Z,17.90
2022-08-19T02:41:27.339Z,17.80
2022-08-19T02:44:26.655Z,17.80
2022-08-19T02:46:46.950Z,17.80
2022-08-19T02:49:15.883Z,17.80
2022-08-19T02:51:45.822Z,17.80
2022-08-19T02:54:14.625Z,17.80
2022-08-19T02:56:43.750Z,17.80
2022-08-19T02:59:11.853Z,17.90
2022-08-19T03:01:42.328Z,17.90
2022-08-19T03:04:15.084Z,18.00
2022-08-19T03:06:45.074Z,18.10
2022-08-19T03:09:13.932Z,18.30
2022-08-19T03:11:41.957Z,18.40
2022-08-19T03:14:11.612Z,18.50
2022-08-19T03:16:44.024Z,18.50
2022-08-19T03:19:13.854Z,18.40
2022-08-19T03:21:42.025Z,18.40
2022-08-19T03:24:10.898Z,18.40
2022-08-19T03:26:42.222Z,18.40
2022-08-19T03:29:11.320Z,18.40
2022-08-19T03:31:52.032Z,18.40
2022-08-19T03:34:23.805Z,18.30
2022-08-19T03:36:51.812Z,18.30
2022-08-19T03:39:20.394Z,18.30
2022-08-19T03:41:50.786Z,18.20
2022-08-19T03:44:39.471Z,18.20
2022-08-19T03:47:07.591Z,18.10
2022-08-19T03:49:37.460Z,18.00
2022-08-19T03:52:08.255Z,18.00
2022-08-19T03:54:36.818Z,17.90
2022-08-19T03:57:05.259Z,17.80
2022-08-19T03:59:38.508Z,17.80
2022-08-19T04:02:10.796Z,17.90
2022-08-19T04:04:41.391Z,17.90
2022-08-19T04:07:10.466Z,17.90
2022-08-19T04:09:39.092Z,17.90
2022-08-19T04:12:07.531Z,17.90
2022-08-19T04:14:36.673Z,17.90
2022-08-19T04:17:06.381Z,17.80
2022-08-19T04:19:35.372Z,17.80
2022-08-19T04:22:05.336Z,17.80
2022-08-19T04:24:33.511Z,17.80
2022-08-19T04:27:02.831Z,17.80
2022-08-19T04:29:31.388Z,17.80
2022-08-19T04:32:09.487Z,17.80
2022-08-19T04:35:02.517Z,17.70
2022-08-19T04:37:35.201Z,17.70
2022-08-19T04:40:22.989Z,17.70
2022-08-19T04:42:50.810Z,17.60
2022-08-19T04:45:18.613Z,17.60
2022-08-19T04:47:58.247Z,17.60
2022-08-19T04:50:27.508Z,17.60
2022-08-19T04:52:57.667Z,17.70
2022-08-19T04:55:27.232Z,17.70
2022-08-19T04:57:55.099Z,17.70
2022-08-19T05:00:23.059Z,17.80
2022-08-19T05:02:50.950Z,17.90
2022-08-19T05:05:18.868Z,17.90
2022-08-19T05:07:46.766Z,18.00
2022-08-19T05:10:15.836Z,18.10
2022-08-19T05:12:43.621Z,18.20
2022-08-19T05:15:12.064Z,18.20
2022-08-19T05:17:59.965Z,18.30
2022-08-19T05:20:45.721Z,18.40
2022-08-19T05:23:22.050Z,18.50
2022-08-19T05:25:52.834Z,18.60
2022-08-19T05:28:20.807Z,18.80
2022-08-19T05:30:49.272Z,18.90
2022-08-19T05:33:17.192Z,19.10
2022-08-19T05:35:45.522Z,19.30
2022-08-19T05:38:13.584Z,19.50
2022-08-19T05:40:42.373Z,19.70
2022-08-19T05:43:11.685Z,19.80
2022-08-19T05:45:43.854Z,20.10
2022-08-19T05:48:12.982Z,20.40
2022-08-19T05:50:42.813Z,20.70
2022-08-19T05:53:11.203Z,20.90
2022-08-19T05:55:40.512Z,21.20
2022-08-19T05:58:08.859Z,21.50
2022-08-19T06:00:38.929Z,21.80
2022-08-19T06:03:11.392Z,22.20
2022-08-19T06:05:42.171Z,22.60
2022-08-19T06:08:19.253Z,23.00
2022-08-19T06:10:47.042Z,23.30
2022-08-19T06:13:14.894Z,23.50
2022-08-19T06:15:45.191Z,23.80
2022-08-19T06:18:13.084Z,24.10
2022-08-19T06:20:55.604Z,24.40
2022-08-19T06:23:24.523Z,24.70
2022-08-19T06:25:52.327Z,25.00
2022-08-19T06:28:20.353Z,25.30
2022-08-19T06:30:49.578Z,25.60
2022-08-19T06:33:17.472Z,25.90
2022-08-19T06:35:46.519Z,26.10
2022-08-19T06:38:14.506Z,26.10
2022-08-19T06:40:45.304Z,26.10
2022-08-19T06:43:13.175Z,26.10
2022-08-19T06:45:41.963Z,26.00
2022-08-19T06:48:11.726Z,25.90
2022-08-19T06:50:39.850Z,25.90
2022-08-19T06:53:08.947Z,25.80
2022-08-19T06:55:37.570Z,25.70
2022-08-19T06:58:06.677Z,25.70
2022-08-19T07:00:35.364Z,25.70
2022-08-19T07:03:07.757Z,25.70
2022-08-19T07:05:45.672Z,25.80
2022-08-19T07:08:14.336Z,25.90
2022-08-19T07:10:45.571Z,26.00
2022-08-19T07:13:13.450Z,26.20
2022-08-19T07:15:41.321Z,26.20
2022-08-19T07:18:11.941Z,26.30
2022-08-19T07:20:42.152Z,26.40
2022-08-19T07:23:10.285Z,26.40
2022-08-19T07:25:39.235Z,26.40
2022-08-19T07:28:22.447Z,26.30
2022-08-19T07:30:52.895Z,26.20
2022-08-19T07:33:20.771Z,26.20
2022-08-19T07:35:50.701Z,26.20
2022-08-19T07:38:18.814Z,26.10
2022-08-19T07:40:46.949Z,26.10
2022-08-19T07:43:17.960Z,26.10
2022-08-19T07:45:47.939Z,26.10
2022-08-19T07:48:15.928Z,26.10
2022-08-19T07:50:43.810Z,26.20
2022-08-19T07:53:14.040Z,26.20
2022-08-19T07:55:43.717Z,26.30
2022-08-19T07:58:14.388Z,26.30
2022-08-19T08:00:42.640Z,26.30
2022-08-19T08:03:10.815Z,26.30
2022-08-19T08:05:55.921Z,26.40
2022-08-19T08:08:44.269Z,26.60
2022-08-19T08:11:16.395Z,26.90
2022-08-19T08:13:46.028Z,27.40
2022-08-19T08:16:13.922Z,27.90
2022-08-19T08:18:43.155Z,28.50
2022-08-19T08:21:11.022Z,29.20
2022-08-19T08:23:41.317Z,29.80
2022-08-19T08:26:09.192Z,30.70
2022-08-19T08:28:38.457Z,31.80
2022-08-19T08:31:09.415Z,32.70
2022-08-19T08:33:37.851Z,33.40
2022-08-19T08:36:07.098Z,33.90
2022-08-19T08:38:39.732Z,34.30
2022-08-19T08:41:20.318Z,34.50
2022-08-19T08:43:51.860Z,34.60
2022-08-19T08:46:31.810Z,34.80
2022-08-19T08:49:09.819Z,35.10
2022-08-19T08:54:18.774Z,36.40
2022-08-19T08:56:49.363Z,37.40
2022-08-19T08:59:24.752Z,38.30
2022-08-19T09:01:52.622Z,39.00
2022-08-19T09:04:20.988Z,39.30
2022-08-19T09:06:56.757Z,39.20
2022-08-19T09:09:33.162Z,39.20
2022-08-19T09:12:11.969Z,39.00
2022-08-19T09:14:50.645Z,38.60
2022-08-19T09:17:19.908Z,37.90
2022-08-19T09:19:53.217Z,37.40
2022-08-19T09:22:25.814Z,36.90
2022-08-19T09:24:55.463Z,36.60
2022-08-19T09:27:41.784Z,36.40
2022-08-19T09:30:14.508Z,36.10
2022-08-19T09:32:44.127Z,35.70
2022-08-19T09:35:13.449Z,35.50
2022-08-19T09:37:41.362Z,35.50
2022-08-19T09:40:12.440Z,35.70
2022-08-19T09:42:49.706Z,35.90
2022-08-19T09:45:21.343Z,36.20
2022-08-19T09:47:49.836Z,36.60
2022-08-19T09:50:17.734Z,36.80
2022-08-19T09:52:55.421Z,36.80
2022-08-19T09:55:31.660Z,36.90
2022-08-19T09:58:02.936Z,36.90
2022-08-19T10:00:31.780Z,36.70
2022-08-19T10:02:59.677Z,36.70
2022-08-19T10:05:48.662Z,36.80
2022-08-19T10:08:17.698Z,37.20
2022-08-19T10:10:47.094Z,37.80
2022-08-19T10:13:18.530Z,38.40
2022-08-19T10:15:47.913Z,39.30
2022-08-19T10:18:18.562Z,40.40
2022-08-19T10:20:51.407Z,41.40
2022-08-19T10:23:21.074Z,42.20
2022-08-19T10:25:49.669Z,43.00
2022-08-19T10:28:19.168Z,43.70
2022-08-19T10:30:47.888Z,43.50
2022-08-19T10:33:16.048Z,43.40
2022-08-19T10:36:05.459Z,42.90
2022-08-19T10:38:34.800Z,42.60
2022-08-19T10:41:09.395Z,42.30
2022-08-19T10:43:40.456Z,41.80
2022-08-19T10:46:14.263Z,41.40
2022-08-19T10:48:45.713Z,40.70
2022-08-19T10:51:32.126Z,40.50
2022-08-19T10:54:00.845Z,39.80
2022-08-19T10:56:49.229Z,38.80
2022-08-19T10:59:19.876Z,38.00
2022-08-19T11:01:48.144Z,37.00
2022-08-19T11:04:20.847Z,36.20
2022-08-19T11:06:50.387Z,35.20
2022-08-19T11:09:20.500Z,34.40
2022-08-19T11:11:48.539Z,33.90
2022-08-19T11:14:21.296Z,33.40
2022-08-19T11:16:50.378Z,33.20
2022-08-19T11:19:19.921Z,33.20
2022-08-19T11:21:50.056Z,33.10
2022-08-19T11:24:21.992Z,33.10
2022-08-19T11:26:51.123Z,32.90
2022-08-19T11:29:26.635Z,32.80
2022-08-19T11:31:55.188Z,32.80
2022-08-19T11:34:28.507Z,32.90
2022-08-19T11:36:59.823Z,33.00
2022-08-19T11:39:29.924Z,32.90
2022-08-19T11:41:59.638Z,32.40
2022-08-19T11:44:31.262Z,32.10
2022-08-19T11:47:08.838Z,32.00
2022-08-19T11:49:37.129Z,31.90
2022-08-19T11:52:05.289Z,31.90
2022-08-19T11:54:33.580Z,31.80
2022-08-19T11:57:02.039Z,31.80
2022-08-19T11:59:31.225Z,31.80
2022-08-19T12:02:00.099Z,31.90
2022-08-19T12:04:27.942Z,31.80
2022-08-19T12:06:55.767Z,31.80
2022-08-19T12:09:23.991Z,31.80
2022-08-19T12:11:52.709Z,31.80
2022-08-19T12:14:20.530Z,31.90
2022-08-19T12:16:51.307Z,32.00
2022-08-19T12:19:21.676Z,32.00
2022-08-19T12:21:50.884Z,31.90
2022-08-19T12:24:23.724Z,32.00
2022-08-19T12:26:53.113Z,32.20
2022-08-19T12:29:23.987Z,32.40
2022-08-19T12:31:53.544Z,32.50
2022-08-19T12:34:21.670Z,32.70
2022-08-19T12:36:50.313Z,32.70
2022-08-19T12:39:18.575Z,32.80
2022-08-19T12:41:54.009Z,32.90
2022-08-19T12:44:29.495Z,33.10
2022-08-19T12:47:01.551Z,33.20
2022-08-19T12:49:52.544Z,33.30
2022-08-19T12:52:23.165Z,33.50
2022-08-19T12:54:53.717Z,33.50
2022-08-19T12:57:23.710Z,33.30
2022-08-19T12:59:59.483Z,33.30
2022-08-19T13:02:28.825Z,33.30
2022-08-19T13:04:57.728Z,33.20
2022-08-19T13:07:25.588Z,33.10
2022-08-19T13:09:54.276Z,33.00
2022-08-19T13:12:25.033Z,32.80
2022-08-19T13:14:53.255Z,32.80
2022-08-19T13:17:21.623Z,32.60
2022-08-19T13:19:51.616Z,32.50
2022-08-19T13:22:19.411Z,32.40
2022-08-19T13:24:47.674Z,32.20
2022-08-19T13:27:16.051Z,31.90
2022-08-19T13:30:02.298Z,31.70
2022-08-19T13:32:49.048Z,31.50
2022-08-19T13:35:18.938Z,31.40
2022-08-19T13:37:46.787Z,31.20
2022-08-19T13:40:19.298Z,31.10
2022-08-19T13:42:49.135Z,31.10
2022-08-19T13:45:19.051Z,31.10
2022-08-19T13:47:48.103Z,31.10
2022-08-19T13:50:19.286Z,31.00
2022-08-19T13:52:48.283Z,31.10
2022-08-19T13:55:24.647Z,31.20
2022-08-19T13:57:53.915Z,31.20
2022-08-19T14:00:23.401Z,31.20
2022-08-19T14:02:53.740Z,31.30
2022-08-19T14:05:23.347Z,31.30
2022-08-19T14:07:51.427Z,31.30
2022-08-19T14:10:19.727Z,31.30
2022-08-19T14:12:48.220Z,31.30
2022-08-19T14:15:17.238Z,31.30
2022-08-19T14:17:49.560Z,31.30
2022-08-19T14:20:18.780Z,31.40
2022-08-19T14:22:49.328Z,31.30
2022-08-19T14:25:20.777Z,31.30
2022-08-19T14:27:49.502Z,31.20
2022-08-19T14:30:20.074Z,31.10
2022-08-19T14:32:48.015Z,31.00
2022-08-19T14:35:17.304Z,30.90
2022-08-19T14:37:47.369Z,30.90
2022-08-19T14:40:17.034Z,30.80
2022-08-19T14:42:45.837Z,30.70
2022-08-19T14:45:14.200Z,30.70
2022-08-19T14:47:42.312Z,30.70
2022-08-19T14:50:18.347Z,30.80
2022-08-19T14:52:49.389Z,30.80
2022-08-19T14:55:18.688Z,30.90
2022-08-19T14:57:47.354Z,30.80
2022-08-19T15:00:16.632Z,30.80
2022-08-19T15:02:45.367Z,30.70
2022-08-19T15:05:14.705Z,30.80
2022-08-19T15:07:42.775Z,30.70
2022-08-19T15:10:14.010Z,30.70
2022-08-19T15:12:43.184Z,30.80
2022-08-19T15:15:14.452Z,30.80
2022-08-19T15:17:46.068Z,30.80
2022-08-19T15:20:17.201Z,30.80
2022-08-19T15:22:45.102Z,30.80
2022-08-19T15:25:16.425Z,30.80
2022-08-19T15:27:44.417Z,30.80
2022-08-19T15:30:13.822Z,30.80
2022-08-19T15:32:44.260Z,30.90
2022-08-19T15:35:15.258Z,30.80
2022-08-19T15:37:43.137Z,30.80
2022-08-19T15:40:11.786Z,30.60
2022-08-19T15:42:43.463Z,30.50
2022-08-19T15:45:12.997Z,30.40
2022-08-19T15:47:41.776Z,30.30
2022-08-19T15:50:12.180Z,30.20
2022-08-19T15:52:50.000Z,30.20
2022-08-19T15:55:32.653Z,30.20
2022-08-19T15:58:28.948Z,30.20
2022-08-19T16:01:15.690Z,30.30
2022-08-19T16:04:01.495Z,30.30
2022-08-19T16:06:29.428Z,30.30
2022-08-19T16:09:00.009Z,30.40
2022-08-19T16:11:31.075Z,30.30
2022-08-19T16:14:01.434Z,30.20
2022-08-19T16:16:33.662Z,30.00
2022-08-19T16:19:06.206Z,29.80
2022-08-19T16:21:41.945Z,29.60
2022-08-19T16:24:13.164Z,29.40
2022-08-19T16:26:41.377Z,29.10
2022-08-19T16:29:12.101Z,28.80
2022-08-19T16:31:41.609Z,28.70
2022-08-19T16:34:09.484Z,28.50
2022-08-19T16:36:41.924Z,28.50
2022-08-19T16:39:11.057Z,28.40
2022-08-19T16:41:39.203Z,28.40
2022-08-19T16:44:08.523Z,28.40
2022-08-19T16:46:39.715Z,28.30
2022-08-19T16:49:08.647Z,28.30
2022-08-19T16:51:36.489Z,28.20
2022-08-19T16:54:05.247Z,28.10
2022-08-19T16:56:33.142Z,28.00
2022-08-19T16:59:01.192Z,28.00
2022-08-19T17:01:29.608Z,27.90
2022-08-19T17:03:59.036Z,27.80
2022-08-19T17:06:29.815Z,27.70
2022-08-19T17:09:00.354Z,27.60
2022-08-19T17:11:29.789Z,27.50
2022-08-19T17:13:58.962Z,27.40
2022-08-19T17:16:28.759Z,27.30
2022-08-19T17:19:01.514Z,27.20
2022-08-19T17:21:31.971Z,27.20
2022-08-19T17:24:01.259Z,27.10
2022-08-19T17:26:32.228Z,27.00
2022-08-19T17:29:00.832Z,26.90
2022-08-19T17:31:31.199Z,26.90
2022-08-19T17:34:01.251Z,26.80
2022-08-19T17:36:34.195Z,26.70
2022-08-19T17:39:05.444Z,26.80
2022-08-19T17:41:34.781Z,26.80
2022-08-19T17:44:03.632Z,26.70
2022-08-19T17:46:31.959Z,26.70
2022-08-19T17:49:01.344Z,26.80
2022-08-19T17:51:42.007Z,26.80
2022-08-19T17:54:12.036Z,26.80
2022-08-19T17:56:40.342Z,26.80
2022-08-19T17:59:13.887Z,26.80
2022-08-19T18:01:52.373Z,26.80
2022-08-19T18:04:24.659Z,26.80
2022-08-19T18:06:54.361Z,26.70
2022-08-19T18:09:25.240Z,26.60
2022-08-19T18:11:54.995Z,26.50
2022-08-19T18:14:32.843Z,26.50
2022-08-19T18:17:02.283Z,26.40
2022-08-19T18:19:40.866Z,26.30
2022-08-19T18:22:10.879Z,26.20
2022-08-19T18:24:39.442Z,26.20
2022-08-19T18:27:07.819Z,26.10
2022-08-19T18:29:37.515Z,26.00
2022-08-19T18:32:05.966Z,26.00
2022-08-19T18:34:37.852Z,25.90
2022-08-19T18:37:06.083Z,26.10
2022-08-19T18:39:51.735Z,26.00
2022-08-19T18:42:37.579Z,26.00
2022-08-19T18:45:24.455Z,25.90
2022-08-19T18:48:24.220Z,25.80
2022-08-19T18:50:58.669Z,25.70
2022-08-19T18:53:28.666Z,25.50
2022-08-19T18:55:56.851Z,25.40
2022-08-19T18:58:26.593Z,25.30
2022-08-19T19:00:57.168Z,25.20
2022-08-19T19:03:26.006Z,25.10
2022-08-19T19:05:53.919Z,25.00
2022-08-19T19:08:27.207Z,24.90
2022-08-19T19:10:56.330Z,24.80
2022-08-19T19:13:24.284Z,24.70
2022-08-19T19:15:52.193Z,24.60
2022-08-19T19:18:20.428Z,24.50
2022-08-19T19:20:48.292Z,24.40
2022-08-19T19:23:16.195Z,24.30
2022-08-19T19:25:50.937Z,24.20
2022-08-19T19:28:25.111Z,24.10
2022-08-19T19:30:54.419Z,24.00
2022-08-19T19:33:22.499Z,23.90
2022-08-19T19:35:50.449Z,23.80
2022-08-19T19:38:18.406Z,23.70
2022-08-19T19:40:47.613Z,23.70
2022-08-19T19:43:18.230Z,23.60
2022-08-19T19:45:47.483Z,23.60
2022-08-19T19:48:16.186Z,23.50
2022-08-19T19:50:45.614Z,23.40
2022-08-19T19:53:14.979Z,23.40
2022-08-19T19:55:43.026Z,23.30
2022-08-19T19:58:12.303Z,23.30
2022-08-19T20:00:40.129Z,23.30
2022-08-19T20:03:32.505Z,23.20
2022-08-19T20:06:00.490Z,23.20
2022-08-19T20:08:46.835Z,23.10
2022-08-19T20:11:31.065Z,23.10
2022-08-19T20:14:10.863Z,23.00
2022-08-19T20:17:02.205Z,22.90
2022-08-19T20:19:34.257Z,22.90
2022-08-19T20:22:02.673Z,22.90
2022-08-19T20:24:33.580Z,22.80
2022-08-19T20:27:02.354Z,22.80
2022-08-19T20:29:39.356Z,22.80
2022-08-19T20:32:09.851Z,22.80
2022-08-19T20:34:38.174Z,22.70
2022-08-19T20:37:07.745Z,22.70
2022-08-19T20:39:35.773Z,22.70
2022-08-19T20:42:03.765Z,22.70
2022-08-19T20:44:33.083Z,22.70
2022-08-19T20:47:03.780Z,22.70
2022-08-19T20:49:32.310Z,22.80
2022-08-19T20:52:00.420Z,22.80
2022-08-19T20:54:28.913Z,22.80
2022-08-19T20:56:56.744Z,22.90
2022-08-19T20:59:26.166Z,22.90
2022-08-19T21:01:55.769Z,22.90
2022-08-19T21:04:23.904Z,22.90
2022-08-19T21:06:52.072Z,23.00
2022-08-19T21:09:20.140Z,23.00
2022-08-19T21:11:48.176Z,23.00
2022-08-19T21:14:16.381Z,23.10
2022-08-19T21:16:44.638Z,23.10
2022-08-19T21:19:14.069Z,23.10
2022-08-19T21:21:41.913Z,23.10
2022-08-19T21:24:09.880Z,23.00
2022-08-19T21:26:37.712Z,23.00
2022-08-19T21:29:05.575Z,23.00
2022-08-19T21:31:33.721Z,23.00
2022-08-19T21:34:01.817Z,23.00
2022-08-19T21:36:31.143Z,23.00
2022-08-19T21:38:58.976Z,22.90
2022-08-19T21:41:26.838Z,22.90
2022-08-19T21:43:54.817Z,22.90
2022-08-19T21:46:22.743Z,22.80
2022-08-19T21:48:50.527Z,22.80
2022-08-19T21:51:18.661Z,22.80
2022-08-19T21:53:50.384Z,22.80
2022-08-19T21:56:20.972Z,22.80
2022-08-19T21:58:48.820Z,22.80
2022-08-19T22:01:16.793Z,22.70
2022-08-19T22:03:44.894Z,22.70
2022-08-19T22:06:12.659Z,22.70
2022-08-19T22:08:42.105Z,22.70
2022-08-19T22:11:12.010Z,22.70
2022-08-19T22:13:41.143Z,22.70
2022-08-19T22:16:10.457Z,22.70
2022-08-19T22:18:38.428Z,22.70
2022-08-19T22:21:11.419Z,22.70
2022-08-19T22:23:40.657Z,22.60
2022-08-19T22:26:08.942Z,22.70
2022-08-19T22:28:38.513Z,22.60
2022-08-19T22:31:07.704Z,22.60
2022-08-19T22:33:36.842Z,22.60
2022-08-19T22:36:07.369Z,22.60
2022-08-19T22:38:35.754Z,22.60
2022-08-19T22:41:03.907Z,22.60
2022-08-19T22:43:33.959Z,22.70
2022-08-19T22:46:03.156Z,22.70
2022-08-19T22:48:32.518Z,22.70
2022-08-19T22:51:18.541Z,22.70
2022-08-19T22:53:48.094Z,22.70
2022-08-19T22:56:18.535Z,22.70
2022-08-19T22:58:50.220Z,22.70
2022-08-19T23:01:29.971Z,22.70
2022-08-19T23:03:58.972Z,22.70
2022-08-19T23:06:33.216Z,22.70
2022-08-19T23:09:04.583Z,22.70
2022-08-19T23:11:35.525Z,22.70
2022-08-19T23:14:03.854Z,22.70
2022-08-19T23:16:35.605Z,22.70
2022-08-19T23:19:04.500Z,22.70
2022-08-19T23:21:32.392Z,22.70
2022-08-19T23:24:00.126Z,22.70
2022-08-19T23:26:30.718Z,22.70
2022-08-19T23:29:19.324Z,22.70
2022-08-19T23:31:49.733Z,22.70
2022-08-19T23:34:17.979Z,22.60
2022-08-19T23:36:46.207Z,22.60
2022-08-19T23:39:14.031Z,22.60
2022-08-19T23:41:41.867Z,22.60
2022-08-19T23:44:14.809Z,22.60
2022-08-19T23:46:54.436Z,22.60
2022-08-19T23:49:26.107Z,22.60
2022-08-19T23:51:55.445Z,22.60
2022-08-19T23:54:34.271Z,22.60
2022-08-19T23:57:14.479Z,22.60
2022-08-19T23:59:44.972Z,22.50
